sensor_id;sensor_type;location;lat;lon;timestamp;temperature;humidity
9414;DHT22;4746;35.664;139.738;2024-03-17T00:01:44;15.00;99.90
9414;DHT22;4746;35.664;139.738;2024-03-17T00:04:13;15.10;99.90
9414;DHT22;4746;35.664;139.738;2024-03-17T00:06:40;15.00;99.90
9414;DHT22;4746;35.664;139.738;2024-03-17T00:09:07;14.80;99.90
9414;DHT22;4746;35.664;139.738;2024-03-17T00:11:36;14.80;99.90
9414;DHT22;4746;35.664;139.738;2024-03-17T00:14:04;14.90;99.90
9414;DHT22;4746;35.664;139.738;2024-03-17T00:16:32;15.00;99.90
9414;DHT22;4746;35.664;139.738;2024-03-17T00:19:00;14.90;99.90
9414;DHT22;4746;35.664;139.738;2024-03-17T00:21:27;14.90;99.90
9414;DHT22;4746;35.664;139.738;2024-03-17T00:23:55;15.00;99.90
9414;DHT22;4746;35.664;139.738;2024-03-17T00:26:23;15.20;99.90
9414;DHT22;4746;35.664;139.738;2024-03-17T00:28:50;15.40;99.90
9414;DHT22;4746;35.664;139.738;2024-03-17T00:31:18;15.50;99.90
9414;DHT22;4746;35.664;139.738;2024-03-17T00:33:46;15.70;99.90
9414;DHT22;4746;35.664;139.738;2024-03-17T00:36:14;15.80;99.90
9414;DHT22;4746;35.664;139.738;2024-03-17T00:38:42;15.90;99.90
9414;DHT22;4746;35.664;139.738;2024-03-17T00:41:09;16.00;99.90
9414;DHT22;4746;35.664;139.738;2024-03-17T00:43:38;15.90;99.90
9414;DHT22;4746;35.664;139.738;2024-03-17T00:46:05;16.10;99.90
9414;DHT22;4746;35.664;139.738;2024-03-17T00:48:33;16.20;99.90
9414;DHT22;4746;35.664;139.738;2024-03-17T00:51:00;16.20;99.90
9414;DHT22;4746;35.664;139.738;2024-03-17T00:53:28;16.40;99.90
9414;DHT22;4746;35.664;139.738;2024-03-17T00:55:56;16.60;99.90
9414;DHT22;4746;35.664;139.738;2024-03-17T00:58:27;16.60;99.90
9414;DHT22;4746;35.664;139.738;2024-03-17T01:00:55;16.60;99.90
9414;DHT22;4746;35.664;139.738;2024-03-17T01:03:22;16.60;99.90
9414;DHT22;4746;35.664;139.738;2024-03-17T01:05:50;16.70;99.90
9414;DHT22;4746;35.664;139.738;2024-03-17T01:08:19;16.70;99.90
9414;DHT22;4746;35.664;139.738;2024-03-17T01:10:48;16.70;99.90
9414;DHT22;4746;35.664;139.738;2024-03-17T01:13:17;16.80;99.90
9414;DHT22;4746;35.664;139.738;2024-03-17T01:15:45;16.80;99.90
9414;DHT22;4746;35.664;139.738;2024-03-17T01:18:17;16.90;99.90
9414;DHT22;4746;35.664;139.738;2024-03-17T01:20:45;17.00;99.90
9414;DHT22;4746;35.664;139.738;2024-03-17T01:23:13;17.10;99.90
9414;DHT22;4746;35.664;139.738;2024-03-17T01:25:41;17.10;99.90
9414;DHT22;4746;35.664;139.738;2024-03-17T01:28:08;17.10;99.90
9414;DHT22;4746;35.664;139.738;2024-03-17T01:30:37;17.10;99.90
9414;DHT22;4746;35.664;139.738;2024-03-17T01:33:06;17.30;99.90
9414;DHT22;4746;35.664;139.738;2024-03-17T01:35:34;17.10;99.90
9414;DHT22;4746;35.664;139.738;2024-03-17T01:38:02;17.10;99.90
9414;DHT22;4746;35.664;139.738;2024-03-17T01:40:30;17.20;99.90
9414;DHT22;4746;35.664;139.738;2024-03-17T01:42:58;17.30;99.90
9414;DHT22;4746;35.664;139.738;2024-03-17T01:45:43;17.20;99.90
9414;DHT22;4746;35.664;139.738;2024-03-17T01:48:15;17.40;99.90
9414;DHT22;4746;35.664;139.738;2024-03-17T01:50:46;17.40;99.90
9414;DHT22;4746;35.664;139.738;2024-03-17T01:53:16;17.40;99.90
9414;DHT22;4746;35.664;139.738;2024-03-17T01:55:44;17.40;99.90
9414;DHT22;4746;35.664;139.738;2024-03-17T01:58:13;17.50;99.90
9414;DHT22;4746;35.664;139.738;2024-03-17T02:00:41;17.50;99.90
9414;DHT22;4746;35.664;139.738;2024-03-17T02:03:12;17.50;99.90
9414;DHT22;4746;35.664;139.738;2024-03-17T02:05:40;17.60;99.90
9414;DHT22;4746;35.664;139.738;2024-03-17T02:08:07;17.60;99.90
9414;DHT22;4746;35.664;139.738;2024-03-17T02:10:37;17.60;99.90
9414;DHT22;4746;35.664;139.738;2024-03-17T02:13:05;17.70;99.90
9414;DHT22;4746;35.664;139.738;2024-03-17T02:15:33;17.60;99.90
9414;DHT22;4746;35.664;139.738;2024-03-17T02:18:01;17.40;99.90
9414;DHT22;4746;35.664;139.738;2024-03-17T02:20:28;17.60;99.90
9414;DHT22;4746;35.664;139.738;2024-03-17T02:23:14;17.70;99.90
9414;DHT22;4746;35.664;139.738;2024-03-17T02:25:43;17.90;99.90
9414;DHT22;4746;35.664;139.738;2024-03-17T02:28:12;18.00;99.90
9414;DHT22;4746;35.664;139.738;2024-03-17T02:30:39;18.20;99.90
9414;DHT22;4746;35.664;139.738;2024-03-17T02:33:08;18.20;99.90
9414;DHT22;4746;35.664;139.738;2024-03-17T02:35:35;18.10;99.90
9414;DHT22;4746;35.664;139.738;2024-03-17T02:38:03;18.10;99.90
9414;DHT22;4746;35.664;139.738;2024-03-17T02:40:31;18.10;99.90
9414;DHT22;4746;35.664;139.738;2024-03-17T02:42:58;18.00;99.90
9414;DHT22;4746;35.664;139.738;2024-03-17T02:45:26;18.00;99.90
9414;DHT22;4746;35.664;139.738;2024-03-17T02:47:53;18.20;99.90
9414;DHT22;4746;35.664;139.738;2024-03-17T02:50:21;18.30;99.90
9414;DHT22;4746;35.664;139.738;2024-03-17T02:52:48;18.40;99.90
9414;DHT22;4746;35.664;139.738;2024-03-17T02:55:16;18.40;99.90
9414;DHT22;4746;35.664;139.738;2024-03-17T02:57:44;18.30;99.90
9414;DHT22;4746;35.664;139.738;2024-03-17T03:00:12;18.30;99.90
9414;DHT22;4746;35.664;139.738;2024-03-17T03:02:40;18.50;99.90
9414;DHT22;4746;35.664;139.738;2024-03-17T03:05:07;18.50;99.90
9414;DHT22;4746;35.664;139.738;2024-03-17T03:07:35;18.70;99.90
9414;DHT22;4746;35.664;139.738;2024-03-17T03:10:02;18.80;99.90
9414;DHT22;4746;35.664;139.738;2024-03-17T03:12:31;18.80;99.90
9414;DHT22;4746;35.664;139.738;2024-03-17T03:14:59;18.80;99.90
9414;DHT22;4746;35.664;139.738;2024-03-17T03:17:26;18.90;99.90
9414;DHT22;4746;35.664;139.738;2024-03-17T03:19:54;18.80;99.90
9414;DHT22;4746;35.664;139.738;2024-03-17T03:22:22;19.00;99.90
9414;DHT22;4746;35.664;139.738;2024-03-17T03:24:52;19.00;99.90
9414;DHT22;4746;35.664;139.738;2024-03-17T03:27:19;19.00;99.90
9414;DHT22;4746;35.664;139.738;2024-03-17T03:29:47;19.00;99.90
9414;DHT22;4746;35.664;139.738;2024-03-17T03:32:14;18.90;99.90
9414;DHT22;4746;35.664;139.738;2024-03-17T03:34:44;19.00;99.90
9414;DHT22;4746;35.664;139.738;2024-03-17T03:37:11;18.80;99.90
9414;DHT22;4746;35.664;139.738;2024-03-17T03:39:39;18.90;99.90
9414;DHT22;4746;35.664;139.738;2024-03-17T03:42:07;19.00;99.90
9414;DHT22;4746;35.664;139.738;2024-03-17T03:44:34;19.30;99.90
9414;DHT22;4746;35.664;139.738;2024-03-17T03:47:02;19.40;99.90
9414;DHT22;4746;35.664;139.738;2024-03-17T03:49:29;19.30;99.90
9414;DHT22;4746;35.664;139.738;2024-03-17T03:51:57;19.40;99.90
9414;DHT22;4746;35.664;139.738;2024-03-17T03:54:25;19.40;99.90
9414;DHT22;4746;35.664;139.738;2024-03-17T03:56:52;19.40;99.90
9414;DHT22;4746;35.664;139.738;2024-03-17T03:59:20;19.60;99.90
9414;DHT22;4746;35.664;139.738;2024-03-17T04:01:48;19.90;99.90
9414;DHT22;4746;35.664;139.738;2024-03-17T04:04:15;19.90;99.90
9414;DHT22;4746;35.664;139.738;2024-03-17T04:06:43;20.20;99.90
9414;DHT22;4746;35.664;139.738;2024-03-17T04:09:10;20.00;99.90
9414;DHT22;4746;35.664;139.738;2024-03-17T04:11:38;19.90;99.90
9414;DHT22;4746;35.664;139.738;2024-03-17T04:14:05;20.00;99.90
9414;DHT22;4746;35.664;139.738;2024-03-17T04:16:33;20.20;99.90
9414;DHT22;4746;35.664;139.738;2024-03-17T04:19:01;19.90;99.90
9414;DHT22;4746;35.664;139.738;2024-03-17T04:21:29;20.10;99.90
9414;DHT22;4746;35.664;139.738;2024-03-17T04:23:57;20.00;99.90
9414;DHT22;4746;35.664;139.738;2024-03-17T04:26:24;20.10;99.90
9414;DHT22;4746;35.664;139.738;2024-03-17T04:28:52;20.00;99.90
9414;DHT22;4746;35.664;139.738;2024-03-17T04:31:19;20.20;99.90
9414;DHT22;4746;35.664;139.738;2024-03-17T04:33:47;20.30;99.90
9414;DHT22;4746;35.664;139.738;2024-03-17T04:36:14;20.20;99.90
9414;DHT22;4746;35.664;139.738;2024-03-17T04:38:42;20.00;99.90
9414;DHT22;4746;35.664;139.738;2024-03-17T04:41:09;20.10;99.90
9414;DHT22;4746;35.664;139.738;2024-03-17T04:43:37;20.00;99.90
9414;DHT22;4746;35.664;139.738;2024-03-17T04:46:05;20.00;99.90
9414;DHT22;4746;35.664;139.738;2024-03-17T04:48:34;19.90;99.90
9414;DHT22;4746;35.664;139.738;2024-03-17T04:51:01;19.90;99.90
9414;DHT22;4746;35.664;139.738;2024-03-17T04:53:29;20.00;99.90
9414;DHT22;4746;35.664;139.738;2024-03-17T04:58:29;20.40;99.90
9414;DHT22;4746;35.664;139.738;2024-03-17T05:01:09;20.40;99.90
9414;DHT22;4746;35.664;139.738;2024-03-17T05:03:39;20.70;99.90
9414;DHT22;4746;35.664;139.738;2024-03-17T05:06:06;21.00;99.90
9414;DHT22;4746;35.664;139.738;2024-03-17T05:08:34;21.00;99.90
9414;DHT22;4746;35.664;139.738;2024-03-17T05:11:03;21.00;99.90
9414;DHT22;4746;35.664;139.738;2024-03-17T05:13:33;20.80;99.90
9414;DHT22;4746;35.664;139.738;2024-03-17T05:16:02;20.80;99.90
9414;DHT22;4746;35.664;139.738;2024-03-17T05:18:30;20.40;99.90
9414;DHT22;4746;35.664;139.738;2024-03-17T05:21:03;20.50;99.90
9414;DHT22;4746;35.664;139.738;2024-03-17T05:23:36;20.70;99.90
9414;DHT22;4746;35.664;139.738;2024-03-17T05:26:05;20.80;99.90
9414;DHT22;4746;35.664;139.738;2024-03-17T05:28:33;20.80;99.90
9414;DHT22;4746;35.664;139.738;2024-03-17T05:31:00;20.90;99.90
9414;DHT22;4746;35.664;139.738;2024-03-17T05:33:28;21.30;99.90
9414;DHT22;4746;35.664;139.738;2024-03-17T05:35:57;21.90;99.90
9414;DHT22;4746;35.664;139.738;2024-03-17T05:38:29;22.60;99.90
9414;DHT22;4746;35.664;139.738;2024-03-17T05:41:01;22.90;99.90
9414;DHT22;4746;35.664;139.738;2024-03-17T05:43:32;23.50;99.90
9414;DHT22;4746;35.664;139.738;2024-03-17T05:46:04;23.80;99.90
9414;DHT22;4746;35.664;139.738;2024-03-17T05:48:37;24.20;99.90
9414;DHT22;4746;35.664;139.738;2024-03-17T05:51:07;24.60;99.40
9414;DHT22;4746;35.664;139.738;2024-03-17T05:53:39;24.90;95.70
9414;DHT22;4746;35.664;139.738;2024-03-17T05:56:07;25.20;94.40
9414;DHT22;4746;35.664;139.738;2024-03-17T05:58:35;25.50;90.90
9414;DHT22;4746;35.664;139.738;2024-03-17T06:01:04;25.70;88.30
9414;DHT22;4746;35.664;139.738;2024-03-17T06:03:36;26.10;87.10
9414;DHT22;4746;35.664;139.738;2024-03-17T06:06:04;26.00;80.80
9414;DHT22;4746;35.664;139.738;2024-03-17T06:08:40;25.90;72.60
9414;DHT22;4746;35.664;139.738;2024-03-17T06:11:08;25.80;72.70
9414;DHT22;4746;35.664;139.738;2024-03-17T06:13:37;25.30;68.50
9414;DHT22;4746;35.664;139.738;2024-03-17T06:16:05;24.90;69.50
9414;DHT22;4746;35.664;139.738;2024-03-17T06:18:33;24.80;72.70
9414;DHT22;4746;35.664;139.738;2024-03-17T06:21:00;24.30;69.80
9414;DHT22;4746;35.664;139.738;2024-03-17T06:23:31;24.90;70.20
9414;DHT22;4746;35.664;139.738;2024-03-17T06:25:59;25.20;68.00
9414;DHT22;4746;35.664;139.738;2024-03-17T06:28:28;25.10;61.80
9414;DHT22;4746;35.664;139.738;2024-03-17T06:31:00;25.50;62.50
9414;DHT22;4746;35.664;139.738;2024-03-17T06:33:30;25.20;62.10
9414;DHT22;4746;35.664;139.738;2024-03-17T06:36:01;25.70;61.10
9414;DHT22;4746;35.664;139.738;2024-03-17T06:38:33;25.90;60.00
9414;DHT22;4746;35.664;139.738;2024-03-17T06:41:01;25.10;58.00
9414;DHT22;4746;35.664;139.738;2024-03-17T06:43:29;25.40;58.80
9414;DHT22;4746;35.664;139.738;2024-03-17T06:45:57;25.60;56.90
9414;DHT22;4746;35.664;139.738;2024-03-17T06:48:26;25.70;56.10
9414;DHT22;4746;35.664;139.738;2024-03-17T06:50:55;25.70;54.70
9414;DHT22;4746;35.664;139.738;2024-03-17T06:53:23;26.10;53.80
9414;DHT22;4746;35.664;139.738;2024-03-17T06:55:59;25.90;54.00
9414;DHT22;4746;35.664;139.738;2024-03-17T06:58:27;26.10;53.50
9414;DHT22;4746;35.664;139.738;2024-03-17T07:01:00;26.40;52.40
9414;DHT22;4746;35.664;139.738;2024-03-17T07:03:30;26.30;53.10
9414;DHT22;4746;35.664;139.738;2024-03-17T07:06:00;26.60;53.70
9414;DHT22;4746;35.664;139.738;2024-03-17T07:08:30;27.00;53.10
9414;DHT22;4746;35.664;139.738;2024-03-17T07:11:06;27.40;52.10
9414;DHT22;4746;35.664;139.738;2024-03-17T07:13:36;27.70;49.80
9414;DHT22;4746;35.664;139.738;2024-03-17T07:16:08;27.50;49.30
9414;DHT22;4746;35.664;139.738;2024-03-17T07:18:36;28.30;50.20
9414;DHT22;4746;35.664;139.738;2024-03-17T07:21:04;27.00;47.00
9414;DHT22;4746;35.664;139.738;2024-03-17T07:23:32;26.60;47.50
9414;DHT22;4746;35.664;139.738;2024-03-17T07:26:01;25.70;47.70
9414;DHT22;4746;35.664;139.738;2024-03-17T07:28:33;25.50;48.50
9414;DHT22;4746;35.664;139.738;2024-03-17T07:31:01;24.90;50.70
9414;DHT22;4746;35.664;139.738;2024-03-17T07:33:29;24.30;53.50
9414;DHT22;4746;35.664;139.738;2024-03-17T07:35:57;23.90;55.40
9414;DHT22;4746;35.664;139.738;2024-03-17T07:38:30;23.70;55.00
9414;DHT22;4746;35.664;139.738;2024-03-17T07:41:02;23.40;56.10
9414;DHT22;4746;35.664;139.738;2024-03-17T07:43:35;23.40;56.70
9414;DHT22;4746;35.664;139.738;2024-03-17T07:46:11;23.00;56.60
9414;DHT22;4746;35.664;139.738;2024-03-17T07:48:41;22.90;57.30
9414;DHT22;4746;35.664;139.738;2024-03-17T07:51:11;23.00;57.20
9414;DHT22;4746;35.664;139.738;2024-03-17T07:53:41;22.50;58.40
9414;DHT22;4746;35.664;139.738;2024-03-17T07:56:12;22.80;58.40
9414;DHT22;4746;35.664;139.738;2024-03-17T07:58:44;22.60;57.40
9414;DHT22;4746;35.664;139.738;2024-03-17T08:01:15;22.40;57.60
9414;DHT22;4746;35.664;139.738;2024-03-17T08:03:46;21.80;59.10
9414;DHT22;4746;35.664;139.738;2024-03-17T08:06:22;21.80;59.40
9414;DHT22;4746;35.664;139.738;2024-03-17T08:08:50;21.60;59.70
9414;DHT22;4746;35.664;139.738;2024-03-17T08:11:18;21.20;60.30
9414;DHT22;4746;35.664;139.738;2024-03-17T08:13:45;21.10;60.70
9414;DHT22;4746;35.664;139.738;2024-03-17T08:16:14;20.90;61.50
9414;DHT22;4746;35.664;139.738;2024-03-17T08:18:43;21.00;61.90
9414;DHT22;4746;35.664;139.738;2024-03-17T08:21:10;21.00;61.90
9414;DHT22;4746;35.664;139.738;2024-03-17T08:23:38;20.90;62.00
9414;DHT22;4746;35.664;139.738;2024-03-17T08:26:08;20.60;63.10
9414;DHT22;4746;35.664;139.738;2024-03-17T08:28:36;20.40;64.00
9414;DHT22;4746;35.664;139.738;2024-03-17T08:31:04;20.30;65.00
9414;DHT22;4746;35.664;139.738;2024-03-17T08:33:32;20.10;66.40
9414;DHT22;4746;35.664;139.738;2024-03-17T08:36:00;19.80;67.50
9414;DHT22;4746;35.664;139.738;2024-03-17T08:38:34;19.70;68.60
9414;DHT22;4746;35.664;139.738;2024-03-17T08:41:11;19.80;68.30
9414;DHT22;4746;35.664;139.738;2024-03-17T08:43:39;19.70;68.90
9414;DHT22;4746;35.664;139.738;2024-03-17T08:46:10;19.80;69.20
9414;DHT22;4746;35.664;139.738;2024-03-17T08:48:40;19.60;69.20
9414;DHT22;4746;35.664;139.738;2024-03-17T08:51:09;19.50;70.60
9414;DHT22;4746;35.664;139.738;2024-03-17T08:53:37;19.40;71.60
9414;DHT22;4746;35.664;139.738;2024-03-17T08:56:08;19.50;72.60
9414;DHT22;4746;35.664;139.738;2024-03-17T08:58:35;19.50;73.50
9414;DHT22;4746;35.664;139.738;2024-03-17T09:01:07;19.50;74.50
9414;DHT22;4746;35.664;139.738;2024-03-17T09:03:35;19.40;75.50
9414;DHT22;4746;35.664;139.738;2024-03-17T09:06:03;19.30;77.80
9414;DHT22;4746;35.664;139.738;2024-03-17T09:08:31;19.20;79.30
9414;DHT22;4746;35.664;139.738;2024-03-17T09:10:59;19.20;81.20
9414;DHT22;4746;35.664;139.738;2024-03-17T09:13:26;19.10;82.70
9414;DHT22;4746;35.664;139.738;2024-03-17T09:15:58;19.00;86.20
9414;DHT22;4746;35.664;139.738;2024-03-17T09:18:31;19.00;87.80
9414;DHT22;4746;35.664;139.738;2024-03-17T09:21:19;19.00;90.00
9414;DHT22;4746;35.664;139.738;2024-03-17T09:23:47;18.90;91.20
9414;DHT22;4746;35.664;139.738;2024-03-17T09:26:14;18.90;91.00
9414;DHT22;4746;35.664;139.738;2024-03-17T09:28:44;18.90;91.80
9414;DHT22;4746;35.664;139.738;2024-03-17T09:31:12;18.80;92.70
9414;DHT22;4746;35.664;139.738;2024-03-17T09:33:39;18.80;92.30
9414;DHT22;4746;35.664;139.738;2024-03-17T09:36:08;18.80;93.30
9414;DHT22;4746;35.664;139.738;2024-03-17T09:38:39;18.70;93.40
9414;DHT22;4746;35.664;139.738;2024-03-17T09:41:07;18.70;93.90
9414;DHT22;4746;35.664;139.738;2024-03-17T09:43:35;18.60;94.40
9414;DHT22;4746;35.664;139.738;2024-03-17T09:46:04;18.70;94.60
9414;DHT22;4746;35.664;139.738;2024-03-17T09:48:32;18.60;95.40
9414;DHT22;4746;35.664;139.738;2024-03-17T09:51:02;18.60;95.70
9414;DHT22;4746;35.664;139.738;2024-03-17T09:53:32;18.60;95.50
9414;DHT22;4746;35.664;139.738;2024-03-17T09:56:10;18.60;95.70
9414;DHT22;4746;35.664;139.738;2024-03-17T09:58:43;18.50;96.30
9414;DHT22;4746;35.664;139.738;2024-03-17T10:01:11;18.50;97.50
9414;DHT22;4746;35.664;139.738;2024-03-17T10:03:48;18.50;96.80
9414;DHT22;4746;35.664;139.738;2024-03-17T10:06:46;18.50;97.30
9414;DHT22;4746;35.664;139.738;2024-03-17T10:09:16;18.40;96.70
9414;DHT22;4746;35.664;139.738;2024-03-17T10:11:47;18.40;97.50
9414;DHT22;4746;35.664;139.738;2024-03-17T10:14:17;18.40;97.50
9414;DHT22;4746;35.664;139.738;2024-03-17T10:16:45;18.40;97.70
9414;DHT22;4746;35.664;139.738;2024-03-17T10:19:31;18.40;97.70
9414;DHT22;4746;35.664;139.738;2024-03-17T10:21:59;18.40;97.90
9414;DHT22;4746;35.664;139.738;2024-03-17T10:24:28;18.50;97.90
9414;DHT22;4746;35.664;139.738;2024-03-17T10:26:57;18.50;97.80
9414;DHT22;4746;35.664;139.738;2024-03-17T10:29:31;18.50;98.10
9414;DHT22;4746;35.664;139.738;2024-03-17T10:32:15;18.50;99.00
9414;DHT22;4746;35.664;139.738;2024-03-17T10:34:44;18.50;99.00
9414;DHT22;4746;35.664;139.738;2024-03-17T10:37:19;18.40;98.80
9414;DHT22;4746;35.664;139.738;2024-03-17T10:39:53;18.40;99.60
9414;DHT22;4746;35.664;139.738;2024-03-17T10:42:28;18.50;99.60
9414;DHT22;4746;35.664;139.738;2024-03-17T10:44:58;18.50;99.60
9414;DHT22;4746;35.664;139.738;2024-03-17T10:47:27;18.40;99.20
9414;DHT22;4746;35.664;139.738;2024-03-17T10:49:55;18.40;98.90
9414;DHT22;4746;35.664;139.738;2024-03-17T10:52:34;18.40;98.70
9414;DHT22;4746;35.664;139.738;2024-03-17T10:55:08;18.40;99.50
9414;DHT22;4746;35.664;139.738;2024-03-17T11:00:25;18.40;98.80
9414;DHT22;4746;35.664;139.738;2024-03-17T11:02:56;18.30;98.90
9414;DHT22;4746;35.664;139.738;2024-03-17T11:08:02;18.40;98.90
9414;DHT22;4746;35.664;139.738;2024-03-17T11:10:35;18.40;99.10
9414;DHT22;4746;35.664;139.738;2024-03-17T11:13:05;18.30;99.00
9414;DHT22;4746;35.664;139.738;2024-03-17T11:15:50;18.30;99.60
9414;DHT22;4746;35.664;139.738;2024-03-17T11:21:20;18.30;99.70
9414;DHT22;4746;35.664;139.738;2024-03-17T11:23:59;18.30;99.90
9414;DHT22;4746;35.664;139.738;2024-03-17T11:26:33;18.20;99.90
9414;DHT22;4746;35.664;139.738;2024-03-17T11:29:04;18.30;99.90
9414;DHT22;4746;35.664;139.738;2024-03-17T11:31:44;18.30;99.90
9414;DHT22;4746;35.664;139.738;2024-03-17T11:34:35;18.20;99.90
9414;DHT22;4746;35.664;139.738;2024-03-17T11:37:06;18.20;99.90
9414;DHT22;4746;35.664;139.738;2024-03-17T11:39:51;18.20;99.90
9414;DHT22;4746;35.664;139.738;2024-03-17T11:42:24;18.20;99.90
9414;DHT22;4746;35.664;139.738;2024-03-17T11:47:37;18.20;99.90
9414;DHT22;4746;35.664;139.738;2024-03-17T11:50:10;18.20;99.90
9414;DHT22;4746;35.664;139.738;2024-03-17T11:52:40;18.20;99.90
9414;DHT22;4746;35.664;139.738;2024-03-17T11:55:18;18.30;99.90
9414;DHT22;4746;35.664;139.738;2024-03-17T11:57:47;18.20;99.90
9414;DHT22;4746;35.664;139.738;2024-03-17T12:00:24;18.30;99.90
9414;DHT22;4746;35.664;139.738;2024-03-17T12:02:52;18.30;99.90
9414;DHT22;4746;35.664;139.738;2024-03-17T12:05:19;18.30;99.90
9414;DHT22;4746;35.664;139.738;2024-03-17T12:07:47;18.40;99.90
9414;DHT22;4746;35.664;139.738;2024-03-17T12:10:20;18.40;99.90
9414;DHT22;4746;35.664;139.738;2024-03-17T12:12:48;18.40;99.90
9414;DHT22;4746;35.664;139.738;2024-03-17T12:15:19;18.40;99.90
9414;DHT22;4746;35.664;139.738;2024-03-17T12:17:52;18.40;99.90
9414;DHT22;4746;35.664;139.738;2024-03-17T12:20:21;18.50;99.90
9414;DHT22;4746;35.664;139.738;2024-03-17T12:22:49;18.50;99.90
9414;DHT22;4746;35.664;139.738;2024-03-17T12:25:20;18.40;99.90
9414;DHT22;4746;35.664;139.738;2024-03-17T12:27:49;18.50;99.90
9414;DHT22;4746;35.664;139.738;2024-03-17T12:30:17;18.50;99.90
9414;DHT22;4746;35.664;139.738;2024-03-17T12:32:45;18.50;99.90
9414;DHT22;4746;35.664;139.738;2024-03-17T12:35:14;18.50;99.90
9414;DHT22;4746;35.664;139.738;2024-03-17T12:37:47;18.50;99.90
9414;DHT22;4746;35.664;139.738;2024-03-17T12:40:22;18.50;99.90
9414;DHT22;4746;35.664;139.738;2024-03-17T12:42:51;18.60;99.90
9414;DHT22;4746;35.664;139.738;2024-03-17T12:45:22;18.60;99.90
9414;DHT22;4746;35.664;139.738;2024-03-17T12:47:51;18.60;99.90
9414;DHT22;4746;35.664;139.738;2024-03-17T12:50:21;18.60;99.90
9414;DHT22;4746;35.664;139.738;2024-03-17T12:52:54;18.60;98.00
9414;DHT22;4746;35.664;139.738;2024-03-17T12:55:22;18.50;94.60
9414;DHT22;4746;35.664;139.738;2024-03-17T12:58:10;18.40;92.00
9414;DHT22;4746;35.664;139.738;2024-03-17T13:01:05;18.30;88.50
9414;DHT22;4746;35.664;139.738;2024-03-17T13:03:34;18.20;87.50
9414;DHT22;4746;35.664;139.738;2024-03-17T13:06:08;18.10;84.80
9414;DHT22;4746;35.664;139.738;2024-03-17T13:08:38;18.10;85.10
9414;DHT22;4746;35.664;139.738;2024-03-17T13:11:09;18.10;83.30
9414;DHT22;4746;35.664;139.738;2024-03-17T13:13:37;18.00;81.80
9414;DHT22;4746;35.664;139.738;2024-03-17T13:16:04;18.00;80.20
9414;DHT22;4746;35.664;139.738;2024-03-17T13:18:33;18.00;81.00
9414;DHT22;4746;35.664;139.738;2024-03-17T13:21:00;18.00;80.00
9414;DHT22;4746;35.664;139.738;2024-03-17T13:23:28;18.00;79.00
9414;DHT22;4746;35.664;139.738;2024-03-17T13:25:56;18.00;78.00
9414;DHT22;4746;35.664;139.738;2024-03-17T13:28:24;18.00;77.00
9414;DHT22;4746;35.664;139.738;2024-03-17T13:30:51;18.00;76.10
9414;DHT22;4746;35.664;139.738;2024-03-17T13:33:19;18.00;75.90
9414;DHT22;4746;35.664;139.738;2024-03-17T13:35:47;17.90;74.90
9414;DHT22;4746;35.664;139.738;2024-03-17T13:38:14;17.90;74.60
9414;DHT22;4746;35.664;139.738;2024-03-17T13:40:42;17.80;75.00
9414;DHT22;4746;35.664;139.738;2024-03-17T13:43:10;17.80;74.80
9414;DHT22;4746;35.664;139.738;2024-03-17T13:45:43;17.80;74.60
9414;DHT22;4746;35.664;139.738;2024-03-17T13:48:12;17.70;74.60
9414;DHT22;4746;35.664;139.738;2024-03-17T13:50:40;17.70;74.80
9414;DHT22;4746;35.664;139.738;2024-03-17T13:53:11;17.60;74.90
9414;DHT22;4746;35.664;139.738;2024-03-17T13:55:38;17.50;75.20
9414;DHT22;4746;35.664;139.738;2024-03-17T13:58:06;17.40;75.80
9414;DHT22;4746;35.664;139.738;2024-03-17T14:00:34;17.30;76.40
9414;DHT22;4746;35.664;139.738;2024-03-17T14:03:04;17.30;77.40
9414;DHT22;4746;35.664;139.738;2024-03-17T14:05:32;17.10;78.60
9414;DHT22;4746;35.664;139.738;2024-03-17T14:08:01;17.00;79.60
9414;DHT22;4746;35.664;139.738;2024-03-17T14:10:30;17.00;80.30
9414;DHT22;4746;35.664;139.738;2024-03-17T14:12:58;16.90;80.80
9414;DHT22;4746;35.664;139.738;2024-03-17T14:15:26;16.80;81.00
9414;DHT22;4746;35.664;139.738;2024-03-17T14:17:53;16.70;82.20
9414;DHT22;4746;35.664;139.738;2024-03-17T14:20:22;16.70;81.70
9414;DHT22;4746;35.664;139.738;2024-03-17T14:22:50;16.70;81.80
9414;DHT22;4746;35.664;139.738;2024-03-17T14:25:23;16.60;79.00
9414;DHT22;4746;35.664;139.738;2024-03-17T14:27:52;16.50;77.00
9414;DHT22;4746;35.664;139.738;2024-03-17T14:30:21;16.40;74.10
9414;DHT22;4746;35.664;139.738;2024-03-17T14:32:48;16.30;71.60
9414;DHT22;4746;35.664;139.738;2024-03-17T14:35:17;16.20;70.30
9414;DHT22;4746;35.664;139.738;2024-03-17T14:37:49;16.10;69.10
9414;DHT22;4746;35.664;139.738;2024-03-17T14:40:19;16.10;69.30
9414;DHT22;4746;35.664;139.738;2024-03-17T14:42:51;16.10;68.50
9414;DHT22;4746;35.664;139.738;2024-03-17T14:45:19;16.00;68.10
9414;DHT22;4746;35.664;139.738;2024-03-17T14:47:49;16.00;67.20
9414;DHT22;4746;35.664;139.738;2024-03-17T14:50:18;15.90;67.40
9414;DHT22;4746;35.664;139.738;2024-03-17T14:52:46;15.90;67.70
9414;DHT22;4746;35.664;139.738;2024-03-17T14:55:14;15.80;67.70
9414;DHT22;4746;35.664;139.738;2024-03-17T14:57:42;15.70;67.70
9414;DHT22;4746;35.664;139.738;2024-03-17T15:00:11;15.60;67.80
9414;DHT22;4746;35.664;139.738;2024-03-17T15:02:47;15.60;66.20
9414;DHT22;4746;35.664;139.738;2024-03-17T15:05:17;15.50;64.60
9414;DHT22;4746;35.664;139.738;2024-03-17T15:07:45;15.40;63.70
9414;DHT22;4746;35.664;139.738;2024-03-17T15:10:13;15.30;62.60
9414;DHT22;4746;35.664;139.738;2024-03-17T15:12:50;15.20;62.40
9414;DHT22;4746;35.664;139.738;2024-03-17T15:15:17;15.20;62.00
9414;DHT22;4746;35.664;139.738;2024-03-17T15:17:45;15.10;62.10
9414;DHT22;4746;35.664;139.738;2024-03-17T15:20:12;15.00;60.70
9414;DHT22;4746;35.664;139.738;2024-03-17T15:22:49;14.90;60.00
9414;DHT22;4746;35.664;139.738;2024-03-17T15:25:18;14.90;60.40
9414;DHT22;4746;35.664;139.738;2024-03-17T15:27:47;14.70;59.80
9414;DHT22;4746;35.664;139.738;2024-03-17T15:30:15;14.60;59.40
9414;DHT22;4746;35.664;139.738;2024-03-17T15:32:49;14.60;59.40
9414;DHT22;4746;35.664;139.738;2024-03-17T15:35:21;14.50;59.20
9414;DHT22;4746;35.664;139.738;2024-03-17T15:37:48;14.30;59.20
9414;DHT22;4746;35.664;139.738;2024-03-17T15:40:16;14.30;60.20
9414;DHT22;4746;35.664;139.738;2024-03-17T15:42:48;14.20;59.20
9414;DHT22;4746;35.664;139.738;2024-03-17T15:45:17;14.30;59.30
9414;DHT22;4746;35.664;139.738;2024-03-17T15:47:51;14.20;59.60
9414;DHT22;4746;35.664;139.738;2024-03-17T15:50:19;14.10;58.50
9414;DHT22;4746;35.664;139.738;2024-03-17T15:52:47;14.00;58.10
9414;DHT22;4746;35.664;139.738;2024-03-17T15:55:14;14.00;58.00
9414;DHT22;4746;35.664;139.738;2024-03-17T15:57:42;13.90;58.00
9414;DHT22;4746;35.664;139.738;2024-03-17T16:00:10;13.90;57.50